sensor_id;sensor_type;location;lat;lon;timestamp;temperature;humidity
1361;DHT22;674;45.552;-122.600;2024-01-30T00:00:50;13.10;1.00
1361;DHT22;674;45.552;-122.600;2024-01-30T00:03:19;13.10;1.00
1361;DHT22;674;45.552;-122.600;2024-01-30T00:05:48;13.00;1.00
1361;DHT22;674;45.552;-122.600;2024-01-30T00:08:16;13.00;1.00
1361;DHT22;674;45.552;-122.600;2024-01-30T00:10:45;12.80;1.00
1361;DHT22;674;45.552;-122.600;2024-01-30T00:13:14;12.70;1.00
1361;DHT22;674;45.552;-122.600;2024-01-30T00:15:44;12.70;1.00
1361;DHT22;674;45.552;-122.600;2024-01-30T00:18:13;12.60;1.00
1361;DHT22;674;45.552;-122.600;2024-01-30T00:20:41;12.50;1.00
1361;DHT22;674;45.552;-122.600;2024-01-30T00:23:11;12.40;1.00
1361;DHT22;674;45.552;-122.600;2024-01-30T00:25:39;12.30;1.00
1361;DHT22;674;45.552;-122.600;2024-01-30T00:28:08;12.30;1.00
1361;DHT22;674;45.552;-122.600;2024-01-30T00:30:36;12.20;1.00
1361;DHT22;674;45.552;-122.600;2024-01-30T00:33:05;12.20;1.00
1361;DHT22;674;45.552;-122.600;2024-01-30T00:35:33;12.20;1.00
1361;DHT22;674;45.552;-122.600;2024-01-30T00:38:02;12.20;1.00
1361;DHT22;674;45.552;-122.600;2024-01-30T00:40:31;12.20;1.00
1361;DHT22;674;45.552;-122.600;2024-01-30T00:42:59;12.20;1.00
1361;DHT22;674;45.552;-122.600;2024-01-30T00:45:28;12.10;1.00
1361;DHT22;674;45.552;-122.600;2024-01-30T00:47:57;12.10;1.00
1361;DHT22;674;45.552;-122.600;2024-01-30T00:50:25;12.10;1.00
1361;DHT22;674;45.552;-122.600;2024-01-30T00:52:54;12.10;1.00
1361;DHT22;674;45.552;-122.600;2024-01-30T00:55:22;12.00;1.00
1361;DHT22;674;45.552;-122.600;2024-01-30T00:57:51;12.10;1.00
1361;DHT22;674;45.552;-122.600;2024-01-30T01:00:20;12.00;1.00
1361;DHT22;674;45.552;-122.600;2024-01-30T01:02:49;12.00;1.00
1361;DHT22;674;45.552;-122.600;2024-01-30T01:05:18;11.90;1.00
1361;DHT22;674;45.552;-122.600;2024-01-30T01:07:46;11.80;1.00
1361;DHT22;674;45.552;-122.600;2024-01-30T01:10:18;11.70;1.00
1361;DHT22;674;45.552;-122.600;2024-01-30T01:12:47;11.60;1.00
1361;DHT22;674;45.552;-122.600;2024-01-30T01:15:16;11.50;1.00
1361;DHT22;674;45.552;-122.600;2024-01-30T01:17:45;11.60;1.00
1361;DHT22;674;45.552;-122.600;2024-01-30T01:20:14;11.40;1.00
1361;DHT22;674;45.552;-122.600;2024-01-30T01:22:43;11.30;1.00
1361;DHT22;674;45.552;-122.600;2024-01-30T01:25:11;11.20;1.00
1361;DHT22;674;45.552;-122.600;2024-01-30T01:27:40;11.20;1.00
1361;DHT22;674;45.552;-122.600;2024-01-30T01:30:10;11.10;1.00
1361;DHT22;674;45.552;-122.600;2024-01-30T01:32:39;10.90;1.00
1361;DHT22;674;45.552;-122.600;2024-01-30T01:35:12;10.90;1.00
1361;DHT22;674;45.552;-122.600;2024-01-30T01:37:41;10.90;1.00
1361;DHT22;674;45.552;-122.600;2024-01-30T01:40:10;10.80;1.00
1361;DHT22;674;45.552;-122.600;2024-01-30T01:42:38;10.80;1.00
1361;DHT22;674;45.552;-122.600;2024-01-30T01:45:07;10.70;1.00
1361;DHT22;674;45.552;-122.600;2024-01-30T01:47:36;10.60;1.00
1361;DHT22;674;45.552;-122.600;2024-01-30T01:50:05;10.70;1.00
1361;DHT22;674;45.552;-122.600;2024-01-30T01:52:35;10.60;1.00
1361;DHT22;674;45.552;-122.600;2024-01-30T01:55:05;10.50;1.00
1361;DHT22;674;45.552;-122.600;2024-01-30T01:57:34;10.60;1.00
1361;DHT22;674;45.552;-122.600;2024-01-30T02:00:03;10.40;1.00
1361;DHT22;674;45.552;-122.600;2024-01-30T02:02:35;10.50;1.00
1361;DHT22;674;45.552;-122.600;2024-01-30T02:05:05;10.50;1.00
1361;DHT22;674;45.552;-122.600;2024-01-30T02:07:33;10.50;1.00
1361;DHT22;674;45.552;-122.600;2024-01-30T02:10:02;10.50;1.00
1361;DHT22;674;45.552;-122.600;2024-01-30T02:12:32;10.50;1.00
1361;DHT22;674;45.552;-122.600;2024-01-30T02:15:01;10.50;1.00
1361;DHT22;674;45.552;-122.600;2024-01-30T02:17:30;10.40;1.00
1361;DHT22;674;45.552;-122.600;2024-01-30T02:19:59;10.50;1.00
1361;DHT22;674;45.552;-122.600;2024-01-30T02:22:28;10.50;1.00
1361;DHT22;674;45.552;-122.600;2024-01-30T02:24:57;10.50;1.00
1361;DHT22;674;45.552;-122.600;2024-01-30T02:27:26;10.50;1.00
1361;DHT22;674;45.552;-122.600;2024-01-30T02:29:54;10.30;1.00
1361;DHT22;674;45.552;-122.600;2024-01-30T02:32:23;10.30;1.00
1361;DHT22;674;45.552;-122.600;2024-01-30T02:34:52;10.30;1.00
1361;DHT22;674;45.552;-122.600;2024-01-30T02:37:20;10.30;1.00
1361;DHT22;674;45.552;-122.600;2024-01-30T02:39:49;10.30;1.00
1361;DHT22;674;45.552;-122.600;2024-01-30T02:42:18;10.30;1.00
1361;DHT22;674;45.552;-122.600;2024-01-30T02:44:47;10.30;1.00
1361;DHT22;674;45.552;-122.600;2024-01-30T02:47:15;10.20;1.00
1361;DHT22;674;45.552;-122.600;2024-01-30T02:49:44;10.10;1.00
1361;DHT22;674;45.552;-122.600;2024-01-30T02:52:13;10.10;1.00
1361;DHT22;674;45.552;-122.600;2024-01-30T02:54:41;10.10;1.00
1361;DHT22;674;45.552;-122.600;2024-01-30T02:57:10;10.20;1.00
1361;DHT22;674;45.552;-122.600;2024-01-30T02:59:39;10.20;1.00
1361;DHT22;674;45.552;-122.600;2024-01-30T03:02:07;10.20;1.00
1361;DHT22;674;45.552;-122.600;2024-01-30T03:04:36;10.20;1.00
1361;DHT22;674;45.552;-122.600;2024-01-30T03:07:05;10.20;1.00
1361;DHT22;674;45.552;-122.600;2024-01-30T03:09:34;10.20;1.00
1361;DHT22;674;45.552;-122.600;2024-01-30T03:12:03;10.20;1.00
1361;DHT22;674;45.552;-122.600;2024-01-30T03:14:35;10.20;1.00
1361;DHT22;674;45.552;-122.600;2024-01-30T03:17:04;10.30;1.00
1361;DHT22;674;45.552;-122.600;2024-01-30T03:19:33;10.30;1.00
1361;DHT22;674;45.552;-122.600;2024-01-30T03:22:02;10.20;1.00
1361;DHT22;674;45.552;-122.600;2024-01-30T03:24:30;10.20;1.00
1361;DHT22;674;45.552;-122.600;2024-01-30T03:26:59;10.10;1.00
1361;DHT22;674;45.552;-122.600;2024-01-30T03:29:28;10.40;1.00
1361;DHT22;674;45.552;-122.600;2024-01-30T03:31:56;10.20;1.00
1361;DHT22;674;45.552;-122.600;2024-01-30T03:34:25;10.20;1.00
1361;DHT22;674;45.552;-122.600;2024-01-30T03:36:54;10.30;1.00
1361;DHT22;674;45.552;-122.600;2024-01-30T03:39:25;10.50;1.00
1361;DHT22;674;45.552;-122.600;2024-01-30T03:41:53;10.30;1.00
1361;DHT22;674;45.552;-122.600;2024-01-30T03:44:22;10.20;1.00
1361;DHT22;674;45.552;-122.600;2024-01-30T03:46:51;10.30;1.00
1361;DHT22;674;45.552;-122.600;2024-01-30T03:49:19;10.30;1.00
1361;DHT22;674;45.552;-122.600;2024-01-30T03:51:48;10.30;1.00
1361;DHT22;674;45.552;-122.600;2024-01-30T03:54:17;10.30;1.00
1361;DHT22;674;45.552;-122.600;2024-01-30T03:56:46;10.30;1.00
1361;DHT22;674;45.552;-122.600;2024-01-30T03:59:14;10.30;1.00
1361;DHT22;674;45.552;-122.600;2024-01-30T04:01:46;10.30;1.00
1361;DHT22;674;45.552;-122.600;2024-01-30T04:04:14;10.30;1.00
1361;DHT22;674;45.552;-122.600;2024-01-30T04:06:43;10.30;1.00
1361;DHT22;674;45.552;-122.600;2024-01-30T04:09:15;10.30;1.00
1361;DHT22;674;45.552;-122.600;2024-01-30T04:11:44;10.30;1.00
1361;DHT22;674;45.552;-122.600;2024-01-30T04:14:12;10.40;1.00
1361;DHT22;674;45.552;-122.600;2024-01-30T04:16:41;10.40;1.00
1361;DHT22;674;45.552;-122.600;2024-01-30T04:19:10;10.40;1.00
1361;DHT22;674;45.552;-122.600;2024-01-30T04:21:38;10.50;1.00
1361;DHT22;674;45.552;-122.600;2024-01-30T04:24:07;10.50;1.00
1361;DHT22;674;45.552;-122.600;2024-01-30T04:26:36;10.50;1.00
1361;DHT22;674;45.552;-122.600;2024-01-30T04:29:05;10.50;1.00
1361;DHT22;674;45.552;-122.600;2024-01-30T04:31:35;10.50;1.00
1361;DHT22;674;45.552;-122.600;2024-01-30T04:34:04;10.50;1.00
1361;DHT22;674;45.552;-122.600;2024-01-30T04:36:33;10.50;1.00
1361;DHT22;674;45.552;-122.600;2024-01-30T04:39:02;10.50;1.00
1361;DHT22;674;45.552;-122.600;2024-01-30T04:41:31;10.50;1.00
1361;DHT22;674;45.552;-122.600;2024-01-30T04:44:00;10.60;1.00
1361;DHT22;674;45.552;-122.600;2024-01-30T04:46:29;10.50;1.00
1361;DHT22;674;45.552;-122.600;2024-01-30T04:48:57;10.50;1.00
1361;DHT22;674;45.552;-122.600;2024-01-30T04:51:26;10.50;1.00
1361;DHT22;674;45.552;-122.600;2024-01-30T04:53:55;10.50;1.00
1361;DHT22;674;45.552;-122.600;2024-01-30T04:56:24;10.60;1.00
1361;DHT22;674;45.552;-122.600;2024-01-30T04:58:52;10.50;1.00
1361;DHT22;674;45.552;-122.600;2024-01-30T05:01:21;10.50;1.00
1361;DHT22;674;45.552;-122.600;2024-01-30T05:03:50;10.50;1.00
1361;DHT22;674;45.552;-122.600;2024-01-30T05:06:25;10.50;1.00
1361;DHT22;674;45.552;-122.600;2024-01-30T05:08:55;10.50;1.00
1361;DHT22;674;45.552;-122.600;2024-01-30T05:11:23;10.50;1.00
1361;DHT22;674;45.552;-122.600;2024-01-30T05:13:52;10.40;1.00
1361;DHT22;674;45.552;-122.600;2024-01-30T05:16:20;10.40;1.00
1361;DHT22;674;45.552;-122.600;2024-01-30T05:18:49;10.50;1.00
1361;DHT22;674;45.552;-122.600;2024-01-30T05:21:18;10.40;1.00
1361;DHT22;674;45.552;-122.600;2024-01-30T05:23:46;10.40;1.00
1361;DHT22;674;45.552;-122.600;2024-01-30T05:26:15;10.30;1.00
1361;DHT22;674;45.552;-122.600;2024-01-30T05:28:44;10.40;1.00
1361;DHT22;674;45.552;-122.600;2024-01-30T05:31:12;10.40;1.00
1361;DHT22;674;45.552;-122.600;2024-01-30T05:33:41;10.50;1.00
1361;DHT22;674;45.552;-122.600;2024-01-30T05:36:12;10.70;1.00
1361;DHT22;674;45.552;-122.600;2024-01-30T05:38:41;10.50;1.00
1361;DHT22;674;45.552;-122.600;2024-01-30T05:41:10;10.50;1.00
1361;DHT22;674;45.552;-122.600;2024-01-30T05:43:38;10.50;1.00
1361;DHT22;674;45.552;-122.600;2024-01-30T05:46:07;10.60;1.00
1361;DHT22;674;45.552;-122.600;2024-01-30T05:48:37;10.50;1.00
1361;DHT22;674;45.552;-122.600;2024-01-30T05:51:07;10.40;1.00
1361;DHT22;674;45.552;-122.600;2024-01-30T05:53:36;10.40;1.00
1361;DHT22;674;45.552;-122.600;2024-01-30T05:56:05;10.40;1.00
1361;DHT22;674;45.552;-122.600;2024-01-30T05:58:34;10.30;1.00
1361;DHT22;674;45.552;-122.600;2024-01-30T06:01:06;10.50;1.00
1361;DHT22;674;45.552;-122.600;2024-01-30T06:03:35;10.20;1.00
1361;DHT22;674;45.552;-122.600;2024-01-30T06:06:04;10.20;1.00
1361;DHT22;674;45.552;-122.600;2024-01-30T06:08:33;10.10;1.00
1361;DHT22;674;45.552;-122.600;2024-01-30T06:11:01;10.10;1.00
1361;DHT22;674;45.552;-122.600;2024-01-30T06:13:30;10.20;1.00
1361;DHT22;674;45.552;-122.600;2024-01-30T06:16:00;10.10;1.00
1361;DHT22;674;45.552;-122.600;2024-01-30T06:18:28;10.00;1.00
1361;DHT22;674;45.552;-122.600;2024-01-30T06:20:59;10.00;1.00
1361;DHT22;674;45.552;-122.600;2024-01-30T06:23:27;9.90;1.00
1361;DHT22;674;45.552;-122.600;2024-01-30T06:25:56;9.90;1.00
1361;DHT22;674;45.552;-122.600;2024-01-30T06:28:24;10.00;1.00
1361;DHT22;674;45.552;-122.600;2024-01-30T06:30:53;9.90;1.00
1361;DHT22;674;45.552;-122.600;2024-01-30T06:33:21;9.90;1.00
1361;DHT22;674;45.552;-122.600;2024-01-30T06:35:50;9.90;1.00
1361;DHT22;674;45.552;-122.600;2024-01-30T06:38:19;9.90;1.00
1361;DHT22;674;45.552;-122.600;2024-01-30T06:40:48;9.80;1.00
1361;DHT22;674;45.552;-122.600;2024-01-30T06:43:16;9.80;1.00
1361;DHT22;674;45.552;-122.600;2024-01-30T06:45:45;9.70;1.00
1361;DHT22;674;45.552;-122.600;2024-01-30T06:48:14;9.70;1.00
1361;DHT22;674;45.552;-122.600;2024-01-30T06:50:43;9.70;1.00
1361;DHT22;674;45.552;-122.600;2024-01-30T06:53:11;9.80;1.00
1361;DHT22;674;45.552;-122.600;2024-01-30T06:55:40;9.70;1.00
1361;DHT22;674;45.552;-122.600;2024-01-30T06:58:09;9.80;1.00
1361;DHT22;674;45.552;-122.600;2024-01-30T07:00:38;9.70;1.00
1361;DHT22;674;45.552;-122.600;2024-01-30T07:03:06;9.60;1.00
1361;DHT22;674;45.552;-122.600;2024-01-30T07:05:35;9.70;1.00
1361;DHT22;674;45.552;-122.600;2024-01-30T07:08:04;9.70;1.00
1361;DHT22;674;45.552;-122.600;2024-01-30T07:10:32;9.70;1.00
1361;DHT22;674;45.552;-122.600;2024-01-30T07:13:01;9.70;1.00
1361;DHT22;674;45.552;-122.600;2024-01-30T07:15:30;9.70;1.00
1361;DHT22;674;45.552;-122.600;2024-01-30T07:17:58;9.70;1.00
1361;DHT22;674;45.552;-122.600;2024-01-30T07:20:27;9.70;1.00
1361;DHT22;674;45.552;-122.600;2024-01-30T07:22:56;9.80;1.00
1361;DHT22;674;45.552;-122.600;2024-01-30T07:25:24;9.70;1.00
1361;DHT22;674;45.552;-122.600;2024-01-30T07:27:57;9.70;1.00
1361;DHT22;674;45.552;-122.600;2024-01-30T07:30:26;9.80;1.00
1361;DHT22;674;45.552;-122.600;2024-01-30T07:32:55;9.70;1.00
1361;DHT22;674;45.552;-122.600;2024-01-30T07:35:23;9.80;1.00
1361;DHT22;674;45.552;-122.600;2024-01-30T07:37:52;9.80;1.00
1361;DHT22;674;45.552;-122.600;2024-01-30T07:40:20;9.80;1.00
1361;DHT22;674;45.552;-122.600;2024-01-30T07:42:49;9.70;1.00
1361;DHT22;674;45.552;-122.600;2024-01-30T07:45:18;9.70;1.00
1361;DHT22;674;45.552;-122.600;2024-01-30T07:47:51;9.70;1.00
1361;DHT22;674;45.552;-122.600;2024-01-30T07:50:20;9.60;1.00
1361;DHT22;674;45.552;-122.600;2024-01-30T07:52:49;9.80;1.00
1361;DHT22;674;45.552;-122.600;2024-01-30T07:55:22;9.60;1.00
1361;DHT22;674;45.552;-122.600;2024-01-30T07:57:52;9.70;1.00
1361;DHT22;674;45.552;-122.600;2024-01-30T08:00:22;9.70;1.00
1361;DHT22;674;45.552;-122.600;2024-01-30T08:02:50;9.70;1.00
1361;DHT22;674;45.552;-122.600;2024-01-30T08:05:22;9.60;1.00
1361;DHT22;674;45.552;-122.600;2024-01-30T08:07:51;9.50;1.00
1361;DHT22;674;45.552;-122.600;2024-01-30T08:10:20;9.50;1.00
1361;DHT22;674;45.552;-122.600;2024-01-30T08:12:49;9.50;1.00
1361;DHT22;674;45.552;-122.600;2024-01-30T08:15:18;9.50;1.00
1361;DHT22;674;45.552;-122.600;2024-01-30T08:17:46;9.30;1.00
1361;DHT22;674;45.552;-122.600;2024-01-30T08:20:15;9.30;1.00
1361;DHT22;674;45.552;-122.600;2024-01-30T08:22:45;9.40;1.00
1361;DHT22;674;45.552;-122.600;2024-01-30T08:25:13;9.40;1.00
1361;DHT22;674;45.552;-122.600;2024-01-30T08:27:42;9.40;1.00
1361;DHT22;674;45.552;-122.600;2024-01-30T08:30:12;9.40;1.00
1361;DHT22;674;45.552;-122.600;2024-01-30T08:32:40;9.50;1.00
1361;DHT22;674;45.552;-122.600;2024-01-30T08:35:09;9.60;1.00
1361;DHT22;674;45.552;-122.600;2024-01-30T08:37:38;9.40;1.00
1361;DHT22;674;45.552;-122.600;2024-01-30T08:40:07;9.50;1.00
1361;DHT22;674;45.552;-122.600;2024-01-30T08:42:39;9.50;1.00
1361;DHT22;674;45.552;-122.600;2024-01-30T08:45:08;9.70;1.00
1361;DHT22;674;45.552;-122.600;2024-01-30T08:47:37;9.50;1.00
1361;DHT22;674;45.552;-122.600;2024-01-30T08:50:06;9.50;1.00
1361;DHT22;674;45.552;-122.600;2024-01-30T08:52:35;9.60;1.00
1361;DHT22;674;45.552;-122.600;2024-01-30T08:55:04;9.50;1.00
1361;DHT22;674;45.552;-122.600;2024-01-30T08:57:33;9.60;1.00
1361;DHT22;674;45.552;-122.600;2024-01-30T09:00:02;9.60;1.00
1361;DHT22;674;45.552;-122.600;2024-01-30T09:02:34;9.60;1.00
1361;DHT22;674;45.552;-122.600;2024-01-30T09:05:03;9.70;1.00
1361;DHT22;674;45.552;-122.600;2024-01-30T09:07:32;9.70;1.00
1361;DHT22;674;45.552;-122.600;2024-01-30T09:10:01;9.70;1.00
1361;DHT22;674;45.552;-122.600;2024-01-30T09:12:30;9.70;1.00
1361;DHT22;674;45.552;-122.600;2024-01-30T09:14:59;9.60;1.00
1361;DHT22;674;45.552;-122.600;2024-01-30T09:17:28;9.60;1.00
1361;DHT22;674;45.552;-122.600;2024-01-30T09:19:56;9.70;1.00
1361;DHT22;674;45.552;-122.600;2024-01-30T09:22:26;9.70;1.00
1361;DHT22;674;45.552;-122.600;2024-01-30T09:24:55;9.70;1.00
1361;DHT22;674;45.552;-122.600;2024-01-30T09:27:24;9.70;1.00
1361;DHT22;674;45.552;-122.600;2024-01-30T09:29:52;9.70;1.00
1361;DHT22;674;45.552;-122.600;2024-01-30T09:32:21;9.70;1.00
1361;DHT22;674;45.552;-122.600;2024-01-30T09:34:50;9.70;1.00
1361;DHT22;674;45.552;-122.600;2024-01-30T09:37:18;9.60;1.00
1361;DHT22;674;45.552;-122.600;2024-01-30T09:39:49;9.60;1.00
1361;DHT22;674;45.552;-122.600;2024-01-30T09:44:53;9.60;1.00
1361;DHT22;674;45.552;-122.600;2024-01-30T09:47:22;9.60;1.00
1361;DHT22;674;45.552;-122.600;2024-01-30T09:49:52;9.50;1.00
1361;DHT22;674;45.552;-122.600;2024-01-30T09:52:20;9.50;1.00
1361;DHT22;674;45.552;-122.600;2024-01-30T09:54:50;9.50;1.00
1361;DHT22;674;45.552;-122.600;2024-01-30T09:57:20;9.70;1.00
1361;DHT22;674;45.552;-122.600;2024-01-30T09:59:49;9.70;1.00
1361;DHT22;674;45.552;-122.600;2024-01-30T10:02:19;9.50;1.00
1361;DHT22;674;45.552;-122.600;2024-01-30T10:04:49;9.40;1.00
1361;DHT22;674;45.552;-122.600;2024-01-30T10:07:18;9.40;1.00
1361;DHT22;674;45.552;-122.600;2024-01-30T10:09:47;9.50;1.00
1361;DHT22;674;45.552;-122.600;2024-01-30T10:12:17;9.60;1.00
1361;DHT22;674;45.552;-122.600;2024-01-30T10:14:45;9.70;1.00
1361;DHT22;674;45.552;-122.600;2024-01-30T10:17:14;9.80;1.00
1361;DHT22;674;45.552;-122.600;2024-01-30T10:19:54;9.80;1.00
1361;DHT22;674;45.552;-122.600;2024-01-30T10:22:23;9.80;1.00
1361;DHT22;674;45.552;-122.600;2024-01-30T10:25:01;10.20;1.00
1361;DHT22;674;45.552;-122.600;2024-01-30T10:27:32;9.90;1.00
1361;DHT22;674;45.552;-122.600;2024-01-30T10:30:01;10.00;1.00
1361;DHT22;674;45.552;-122.600;2024-01-30T10:32:32;9.90;1.00
1361;DHT22;674;45.552;-122.600;2024-01-30T10:35:00;10.00;1.00
1361;DHT22;674;45.552;-122.600;2024-01-30T10:37:30;10.00;1.00
1361;DHT22;674;45.552;-122.600;2024-01-30T10:40:04;9.90;1.00
1361;DHT22;674;45.552;-122.600;2024-01-30T10:42:37;9.90;1.00
1361;DHT22;674;45.552;-122.600;2024-01-30T10:45:10;9.90;1.00
1361;DHT22;674;45.552;-122.600;2024-01-30T10:47:43;10.10;1.00
1361;DHT22;674;45.552;-122.600;2024-01-30T10:50:12;9.80;1.00
1361;DHT22;674;45.552;-122.600;2024-01-30T10:52:42;9.80;1.00
1361;DHT22;674;45.552;-122.600;2024-01-30T10:55:11;9.70;1.00
1361;DHT22;674;45.552;-122.600;2024-01-30T10:57:41;9.70;1.00
1361;DHT22;674;45.552;-122.600;2024-01-30T11:00:12;9.60;1.00
1361;DHT22;674;45.552;-122.600;2024-01-30T11:02:43;9.50;1.00
1361;DHT22;674;45.552;-122.600;2024-01-30T11:05:12;9.50;1.00
1361;DHT22;674;45.552;-122.600;2024-01-30T11:07:41;9.50;1.00
1361;DHT22;674;45.552;-122.600;2024-01-30T11:10:12;9.50;1.00
1361;DHT22;674;45.552;-122.600;2024-01-30T11:12:43;9.70;1.00
1361;DHT22;674;45.552;-122.600;2024-01-30T11:15:15;9.50;1.00
1361;DHT22;674;45.552;-122.600;2024-01-30T11:20:26;9.60;1.00
1361;DHT22;674;45.552;-122.600;2024-01-30T11:22:56;9.40;1.00
1361;DHT22;674;45.552;-122.600;2024-01-30T11:25:26;9.40;1.00
1361;DHT22;674;45.552;-122.600;2024-01-30T11:27:55;9.40;1.00
1361;DHT22;674;45.552;-122.600;2024-01-30T11:30:26;9.30;1.00
1361;DHT22;674;45.552;-122.600;2024-01-30T11:33:28;9.30;1.00
1361;DHT22;674;45.552;-122.600;2024-01-30T11:36:01;9.20;1.00
1361;DHT22;674;45.552;-122.600;2024-01-30T11:38:34;9.20;1.00
1361;DHT22;674;45.552;-122.600;2024-01-30T11:41:04;9.40;1.00
1361;DHT22;674;45.552;-122.600;2024-01-30T11:43:34;9.20;1.00
1361;DHT22;674;45.552;-122.600;2024-01-30T11:46:03;9.20;1.00
1361;DHT22;674;45.552;-122.600;2024-01-30T11:48:34;9.20;1.00
1361;DHT22;674;45.552;-122.600;2024-01-30T11:51:02;9.30;1.00
1361;DHT22;674;45.552;-122.600;2024-01-30T11:53:31;9.40;1.00
1361;DHT22;674;45.552;-122.600;2024-01-30T11:56:00;9.30;1.00
1361;DHT22;674;45.552;-122.600;2024-01-30T11:58:28;9.30;1.00
1361;DHT22;674;45.552;-122.600;2024-01-30T12:00:57;9.20;1.00
1361;DHT22;674;45.552;-122.600;2024-01-30T12:03:28;9.20;1.00
1361;DHT22;674;45.552;-122.600;2024-01-30T12:05:57;9.20;1.00
1361;DHT22;674;45.552;-122.600;2024-01-30T12:08:29;9.10;1.00
1361;DHT22;674;45.552;-122.600;2024-01-30T12:10:58;8.90;1.00
1361;DHT22;674;45.552;-122.600;2024-01-30T12:13:27;8.80;1.00
1361;DHT22;674;45.552;-122.600;2024-01-30T12:16:00;8.70;1.00
1361;DHT22;674;45.552;-122.600;2024-01-30T12:18:29;8.80;1.00
1361;DHT22;674;45.552;-122.600;2024-01-30T12:20:59;8.50;1.00
1361;DHT22;674;45.552;-122.600;2024-01-30T12:23:28;8.60;1.00
1361;DHT22;674;45.552;-122.600;2024-01-30T12:25:57;8.40;1.00
1361;DHT22;674;45.552;-122.600;2024-01-30T12:28:26;8.30;1.00
1361;DHT22;674;45.552;-122.600;2024-01-30T12:31:02;8.30;1.00
1361;DHT22;674;45.552;-122.600;2024-01-30T12:33:31;8.10;1.00
1361;DHT22;674;45.552;-122.600;2024-01-30T12:36:03;8.10;1.00
1361;DHT22;674;45.552;-122.600;2024-01-30T12:38:32;8.10;1.00
1361;DHT22;674;45.552;-122.600;2024-01-30T12:41:01;8.10;1.00
1361;DHT22;674;45.552;-122.600;2024-01-30T12:43:30;8.00;1.00
1361;DHT22;674;45.552;-122.600;2024-01-30T12:46:05;8.00;1.00
1361;DHT22;674;45.552;-122.600;2024-01-30T12:48:34;8.00;1.00
1361;DHT22;674;45.552;-122.600;2024-01-30T12:51:05;8.10;1.00
1361;DHT22;674;45.552;-122.600;2024-01-30T12:53:34;8.00;1.00
1361;DHT22;674;45.552;-122.600;2024-01-30T12:56:03;8.00;1.00
1361;DHT22;674;45.552;-122.600;2024-01-30T12:58:32;8.00;1.00
1361;DHT22;674;45.552;-122.600;2024-01-30T13:01:00;8.00;1.00
1361;DHT22;674;45.552;-122.600;2024-01-30T13:03:29;8.00;1.00
1361;DHT22;674;45.552;-122.600;2024-01-30T13:05:58;8.00;1.00
1361;DHT22;674;45.552;-122.600;2024-01-30T13:08:26;8.00;1.00
1361;DHT22;674;45.552;-122.600;2024-01-30T13:10:55;8.00;1.00
1361;DHT22;674;45.552;-122.600;2024-01-30T13:13:24;8.00;1.00
1361;DHT22;674;45.552;-122.600;2024-01-30T13:15:52;8.00;1.00
1361;DHT22;674;45.552;-122.600;2024-01-30T13:18:21;8.00;1.00
1361;DHT22;674;45.552;-122.600;2024-01-30T13:20:50;8.00;1.00
1361;DHT22;674;45.552;-122.600;2024-01-30T13:23:19;8.00;1.00
1361;DHT22;674;45.552;-122.600;2024-01-30T13:25:47;7.70;1.00
1361;DHT22;674;45.552;-122.600;2024-01-30T13:28:16;7.90;1.00
1361;DHT22;674;45.552;-122.600;2024-01-30T13:30:45;7.80;1.00
1361;DHT22;674;45.552;-122.600;2024-01-30T13:33:13;7.70;1.00
1361;DHT22;674;45.552;-122.600;2024-01-30T13:35:42;7.70;1.00
1361;DHT22;674;45.552;-122.600;2024-01-30T13:38:10;7.70;1.00
1361;DHT22;674;45.552;-122.600;2024-01-30T13:40:39;7.80;1.00
1361;DHT22;674;45.552;-122.600;2024-01-30T13:43:08;7.80;1.00
1361;DHT22;674;45.552;-122.600;2024-01-30T13:45:37;7.60;1.00
1361;DHT22;674;45.552;-122.600;2024-01-30T13:48:05;7.70;1.00
1361;DHT22;674;45.552;-122.600;2024-01-30T13:50:34;7.70;1.00
1361;DHT22;674;45.552;-122.600;2024-01-30T13:53:03;7.80;1.00
1361;DHT22;674;45.552;-122.600;2024-01-30T13:55:33;7.60;1.00
1361;DHT22;674;45.552;-122.600;2024-01-30T13:58:02;7.70;1.00
1361;DHT22;674;45.552;-122.600;2024-01-30T14:00:31;7.70;1.00
1361;DHT22;674;45.552;-122.600;2024-01-30T14:03:00;7.60;1.00
1361;DHT22;674;45.552;-122.600;2024-01-30T14:05:28;7.70;1.00
1361;DHT22;674;45.552;-122.600;2024-01-30T14:07:58;7.70;1.00
1361;DHT22;674;45.552;-122.600;2024-01-30T14:10:28;7.70;1.00
1361;DHT22;674;45.552;-122.600;2024-01-30T14:12:56;7.80;1.00
1361;DHT22;674;45.552;-122.600;2024-01-30T14:15:25;7.80;1.00
1361;DHT22;674;45.552;-122.600;2024-01-30T14:17:56;7.90;1.00
1361;DHT22;674;45.552;-122.600;2024-01-30T14:20:26;7.80;1.00
1361;DHT22;674;45.552;-122.600;2024-01-30T14:22:54;7.80;1.00
1361;DHT22;674;45.552;-122.600;2024-01-30T14:25:24;8.10;1.00
1361;DHT22;674;45.552;-122.600;2024-01-30T14:27:53;7.80;1.00
1361;DHT22;674;45.552;-122.600;2024-01-30T14:30:22;7.60;1.00
1361;DHT22;674;45.552;-122.600;2024-01-30T14:32:50;7.60;1.00
1361;DHT22;674;45.552;-122.600;2024-01-30T14:35:20;7.90;1.00
1361;DHT22;674;45.552;-122.600;2024-01-30T14:37:49;8.00;1.00
1361;DHT22;674;45.552;-122.600;2024-01-30T14:40:18;8.00;1.00
1361;DHT22;674;45.552;-122.600;2024-01-30T14:42:47;7.90;1.00
1361;DHT22;674;45.552;-122.600;2024-01-30T14:45:16;8.00;1.00
1361;DHT22;674;45.552;-122.600;2024-01-30T14:47:46;8.00;1.00
1361;DHT22;674;45.552;-122.600;2024-01-30T14:50:15;7.90;1.00
1361;DHT22;674;45.552;-122.600;2024-01-30T14:52:45;7.90;1.00
1361;DHT22;674;45.552;-122.600;2024-01-30T14:55:14;8.00;1.00
1361;DHT22;674;45.552;-122.600;2024-01-30T14:57:43;8.00;1.00
1361;DHT22;674;45.552;-122.600;2024-01-30T15:00:13;8.00;1.00
1361;DHT22;674;45.552;-122.600;2024-01-30T15:02:44;8.00;1.00
1361;DHT22;674;45.552;-122.600;2024-01-30T15:05:14;8.00;1.00
1361;DHT22;674;45.552;-122.600;2024-01-30T15:07:44;8.20;1.00
1361;DHT22;674;45.552;-122.600;2024-01-30T15:10:13;8.10;1.00
1361;DHT22;674;45.552;-122.600;2024-01-30T15:12:42;8.20;1.00
1361;DHT22;674;45.552;-122.600;2024-01-30T15:15:10;8.20;1.00
1361;DHT22;674;45.552;-122.600;2024-01-30T15:17:39;8.20;1.00
1361;DHT22;674;45.552;-122.600;2024-01-30T15:20:08;8.30;1.00
1361;DHT22;674;45.552;-122.600;2024-01-30T15:22:37;8.20;1.00
1361;DHT22;674;45.552;-122.600;2024-01-30T15:25:08;8.20;1.00
1361;DHT22;674;45.552;-122.600;2024-01-30T15:27:37;8.00;1.00
1361;DHT22;674;45.552;-122.600;2024-01-30T15:30:06;8.20;1.00
1361;DHT22;674;45.552;-122.600;2024-01-30T15:32:35;8.20;1.00
1361;DHT22;674;45.552;-122.600;2024-01-30T15:35:04;8.20;1.00
1361;DHT22;674;45.552;-122.600;2024-01-30T15:37:34;8.00;1.00
1361;DHT22;674;45.552;-122.600;2024-01-30T15:40:03;8.20;1.00
1361;DHT22;674;45.552;-122.600;2024-01-30T15:42:34;8.00;1.00
1361;DHT22;674;45.552;-122.600;2024-01-30T15:45:03;8.00;1.00
1361;DHT22;674;45.552;-122.600;2024-01-30T15:47:32;8.20;1.00
1361;DHT22;674;45.552;-122.600;2024-01-30T15:50:02;8.20;1.00
1361;DHT22;674;45.552;-122.600;2024-01-30T15:52:32;8.10;1.00
1361;DHT22;674;45.552;-122.600;2024-01-30T15:55:01;8.10;1.00
1361;DHT22;674;45.552;-122.600;2024-01-30T15:57:29;8.10;1.00
1361;DHT22;674;45.552;-122.600;2024-01-30T15:59:58;8.00;1.00
1361;DHT22;674;45.552;-122.600;2024-01-30T16:02:27;8.20;1.00
1361;DHT22;674;45.552;-122.600;2024-01-30T16:04:57;8.10;1.00
1361;DHT22;674;45.552;-122.600;2024-01-30T16:07:25;8.00;1.00
1361;DHT22;674;45.552;-122.600;2024-01-30T16:09:54;8.10;1.00
1361;DHT22;674;45.552;-122.600;2024-01-30T16:12:23;8.10;1.00